Kinards, South Carolina
Current Conditions -  °F | °C
As of 5:15 AM on Monday 26 Jan 2015 (Local Time) from KEOE Reporting Station
Clear Clear  
Wind Chill: 36°   Ceiling: Unl
Heat Index: 41°   Visibility: 10mi
Dew Point: 37°   Wind: 8mph
Humidity: 87%   Direction: 230°SW
Pressure: 29.68"   Gusts: NA
Location:  34.37°N, 81.77°W
Report Text: KEOE 261015Z AUTO 23007KT 10SM CLR 05/03 A2968 RMK AO2
Loading
Personal Weather Stations






























Interactive Weather Map New forecast layout! Learn more

10-Day Weather Forecast

Advertisements
Track Severe Weather on mobile